Time;durP1;ratioP1;P1;durP2;ratioP2;P2;SDS_P1;SDS_P2;PMS_P1;PMS_P2;Temp;Humidity;BMP_temperature;BMP_pressure;BME280_temperature;BME280_humidity;BME280_pressure;Samples;Min_cycle;Max_cycle;Signal;HPM_P1;HPM_P2
2021/01/27 00:16:20;;;;;;;33.63;17.83;;;;;;;0.84;80.41;99670.80;102742;1113;78973;-73
2021/01/27 00:18:25;;;;;;;31.63;16.17;;;;;;;0.78;80.20;99659.90;102703;1113;64239;-69
2021/01/27 00:31:31;;;;;;;53.95;27.65;;;;;;;0.83;80.23;99655.82;102733;1116;78177;-68
2021/01/27 01:56:12;;;;;;;40.37;19.53;;;;;;;0.96;80.72;99644.88;103004;1112;79646;-67
2021/01/27 01:58:37;;;;;;;40.33;19.97;;;;;;;0.95;80.63;99637.87;103052;1112;64322;-66
2021/01/27 02:01:02;;;;;;;34.70;18.80;;;;;;;0.93;80.53;99648.66;102997;1112;83143;-66
2021/01/27 02:03:27;;;;;;;34.03;18.47;;;;;;;0.96;80.73;99644.88;103055;1112;71173;-66
2021/01/27 02:05:51;;;;;;;29.07;17.37;;;;;;;0.95;80.87;99653.82;103077;1109;84035;-66
2021/01/27 02:08:15;;;;;;;29.77;17.07;;;;;;;0.89;80.68;99646.42;103039;1112;77143;-68
2021/01/27 02:10:38;;;;;;;35.58;19.30;;;;;;;0.92;80.54;99651.45;103032;1112;64137;-70
2021/01/27 02:13:30;;;;;;;28.40;17.20;;;;;;;0.95;80.57;99653.82;103014;1113;81225;-70
2021/01/27 02:16:16;;;;;;;33.13;18.47;;;;;;;0.94;80.68;99645.00;102939;1112;70408;-69
2021/01/27 02:19:09;;;;;;;30.95;17.75;;;;;;;0.92;80.78;99656.77;103040;1112;85848;-69
2021/01/27 02:22:19;;;;;;;33.10;19.13;;;;;;;0.96;80.63;99655.52;103075;1112;78389;-66
2021/01/27 02:25:23;;;;;;;29.93;18.03;;;;;;;0.93;80.63;99650.48;103068;1112;64258;-65
2021/01/27 02:27:51;;;;;;;30.20;16.83;;;;;;;0.95;80.82;99657.33;103028;1112;81117;-67
2021/01/27 02:30:40;;;;;;;40.27;22.60;;;;;;;0.91;80.64;99658.59;103061;1109;71965;-67
2021/01/27 02:33:38;;;;;;;28.35;17.75;;;;;;;0.91;80.54;99647.11;103031;1112;83702;-67
2021/01/27 02:36:11;;;;;;;23.73;14.83;;;;;;;0.92;80.51;99659.43;102968;1112;76968;-66
2021/01/27 02:38:41;;;;;;;25.03;15.90;;;;;;;0.96;80.51;99655.52;103017;1112;66066;-68
2021/01/27 02:41:11;;;;;;;28.97;16.47;;;;;;;0.98;80.62;99656.19;103053;1112;80439;-68
2021/01/27 02:43:38;;;;;;;24.50;15.13;;;;;;;1.00;80.65;99655.06;103083;1109;71349;-67
2021/01/27 02:46:08;;;;;;;35.40;19.87;;;;;;;0.97;80.32;99660.67;103049;1112;83086;-67
2021/01/27 02:48:37;;;;;;;23.33;16.13;;;;;;;1.00;80.68;99659.53;103053;1112;77156;-67
2021/01/27 02:51:07;;;;;;;27.27;16.07;;;;;;;1.02;80.49;99647.77;103083;1112;64188;-67
2021/01/27 02:53:34;;;;;;;28.95;17.35;;;;;;;0.99;80.47;99644.58;103094;1109;80778;-66
2021/01/27 02:56:02;;;;;;;33.97;18.67;;;;;;;0.88;80.40;99656.22;103108;1112;70876;-66
2021/01/27 02:58:34;;;;;;;32.57;17.20;;;;;;;0.87;80.38;99659.03;103089;1112;83058;-66
2021/01/27 03:01:04;;;;;;;25.03;14.07;;;;;;;0.85;80.30;99655.69;103014;1112;77052;-66
2021/01/27 03:03:36;;;;;;;23.77;14.47;;;;;;;0.88;80.47;99660.72;103052;1112;64200;-67
2021/01/27 03:06:07;;;;;;;18.57;12.17;;;;;;;0.85;80.61;99658.35;103061;1112;83079;-69
2021/01/27 03:08:35;;;;;;;22.10;13.47;;;;;;;0.87;80.54;99657.22;103042;1113;73415;-68
2021/01/27 03:11:08;;;;;;;23.47;13.63;;;;;;;0.84;80.27;99657.51;103012;1112;83563;-68
2021/01/27 03:13:34;;;;;;;18.97;12.33;;;;;;;0.87;80.14;99659.88;103086;1112;76976;-70
2021/01/27 03:16:05;;;;;;;20.55;12.40;;;;;;;0.86;80.26;99665.33;103096;1112;64492;-68
2021/01/27 03:18:32;;;;;;;19.47;12.43;;;;;;;0.88;80.34;99666.04;103034;1112;83737;-68
2021/01/27 03:21:02;;;;;;;17.93;11.83;;;;;;;0.86;80.13;99674.14;103051;1112;70739;-68
2021/01/27 03:23:36;;;;;;;19.00;11.70;;;;;;;0.85;80.23;99669.80;103064;1113;85476;-65
2021/01/27 03:26:09;;;;;;;20.33;12.13;;;;;;;0.82;80.45;99674.59;103050;1112;77236;-65
2021/01/27 03:28:39;;;;;;;17.37;11.33;;;;;;;0.79;80.20;99674.88;103065;1112;64143;-66
2021/01/27 03:31:02;;;;;;;19.60;11.93;;;;;;;0.79;80.51;99678.38;103039;1112;81228;-66
2021/01/27 03:33:32;;;;;;;17.97;11.27;;;;;;;0.83;80.32;99681.56;103065;1109;73007;-65
2021/01/27 03:36:01;;;;;;;18.07;12.13;;;;;;;0.80;80.16;99682.69;103029;1112;84001;-67
2021/01/27 03:38:31;;;;;;;16.13;10.63;;;;;;;0.82;80.04;99682.56;103089;1112;78320;-66
2021/01/27 03:40:59;;;;;;;18.40;11.17;;;;;;;0.80;80.29;99692.48;103056;1112;64178;-67
2021/01/27 03:43:28;;;;;;;18.60;11.95;;;;;;;0.80;80.24;99684.50;103066;1112;81366;-66
2021/01/27 03:45:58;;;;;;;13.70;9.30;;;;;;;0.81;80.27;99689.70;103045;1112;71106;-69
2021/01/27 03:48:29;;;;;;;18.70;11.13;;;;;;;0.81;80.12;99697.67;103038;1112;85962;-67
2021/01/27 03:50:57;;;;;;;16.70;10.90;;;;;;;0.80;80.07;99693.33;103074;1112;80013;-65
2021/01/27 03:53:21;;;;;;;18.80;10.80;;;;;;;0.76;79.97;99696.42;103047;1112;64312;-67
2021/01/27 03:55:51;;;;;;;17.20;11.28;;;;;;;0.79;80.13;99696.98;103065;1109;84016;-67
2021/01/27 03:58:21;;;;;;;18.60;10.90;;;;;;;0.79;80.31;99696.14;103038;1112;71292;-68
2021/01/27 04:00:46;;;;;;;17.97;10.13;;;;;;;0.82;80.08;99694.05;103045;1112;86353;-69
2021/01/27 04:03:16;;;;;;;15.90;10.60;;;;;;;0.77;80.24;99692.80;103014;1112;79145;-68
2021/01/27 04:05:39;;;;;;;16.97;10.50;;;;;;;0.74;80.28;99693.09;103063;1112;64762;-68
2021/01/27 04:08:02;;;;;;;17.53;10.67;;;;;;;0.76;80.21;99699.09;103022;1112;82685;-66
2021/01/27 04:10:25;;;;;;;17.05;11.23;;;;;;;0.80;79.97;99698.64;103071;1113;72915;-64
2021/01/27 04:12:48;;;;;;;14.40;10.63;;;;;;;0.80;79.90;99692.48;103020;1112;83749;-68
2021/01/27 04:15:13;;;;;;;15.30;11.00;;;;;;;0.82;80.16;99699.36;103042;1113;77187;-68
2021/01/27 04:17:36;;;;;;;15.87;11.00;;;;;;;0.80;79.80;99697.80;103112;1113;63063;-67
2021/01/27 04:20:00;;;;;;;15.03;9.90;;;;;;;0.84;79.96;99701.86;103040;1112;81029;-69
2021/01/27 04:22:23;;;;;;;16.10;9.70;;;;;;;0.81;79.97;99691.52;103087;1112;73015;-65
2021/01/27 04:24:46;;;;;;;16.75;10.53;;;;;;;0.77;79.87;99692.80;103066;1112;86914;-66
2021/01/27 04:27:09;;;;;;;17.30;10.37;;;;;;;0.74;80.04;99683.30;103056;1109;77440;-67
2021/01/27 04:29:32;;;;;;;13.70;9.43;;;;;;;0.75;80.10;99684.11;103056;1112;64440;-66
2021/01/27 04:31:56;;;;;;;15.20;9.70;;;;;;;0.74;80.16;99693.92;103069;1113;80569;-66
2021/01/27 04:34:18;;;;;;;14.25;8.40;;;;;;;0.76;79.98;99696.42;103070;1113;70573;-67
2021/01/27 04:36:42;;;;;;;16.25;9.40;;;;;;;0.69;80.14;99695.34;102918;1112;85889;-65
2021/01/27 04:39:06;;;;;;;13.70;9.10;;;;;;;0.71;80.04;99694.22;103041;1112;79507;-68
2021/01/27 04:41:30;;;;;;;15.40;9.27;;;;;;;0.71;80.21;99699.53;103085;1112;64203;-69
2021/01/27 04:43:54;;;;;;;13.87;9.00;;;;;;;0.71;80.07;99704.00;103054;1112;80970;-65
2021/01/27 04:46:24;;;;;;;15.73;10.03;;;;;;;0.71;80.16;99693.38;103048;1112;70777;-66
2021/01/27 04:49:00;;;;;;;41.70;20.93;;;;;;;0.71;80.16;99701.34;103020;1112;84576;-70
2021/01/27 04:51:33;;;;;;;43.37;21.00;;;;;;;0.69;80.45;99698.00;103038;1112;79915;-70
2021/01/27 04:54:15;;;;;;;28.05;14.40;;;;;;;0.66;80.41;99691.13;103067;1113;64428;-70
2021/01/27 04:57:17;;;;;;;29.23;15.50;;;;;;;0.66;80.41;99696.44;103034;1112;81229;-69
2021/01/27 05:00:00;;;;;;;25.70;15.27;;;;;;;0.66;80.30;99695.63;103079;1112;71441;-67
2021/01/27 05:02:52;;;;;;;24.43;14.70;;;;;;;0.59;80.54;99705.98;103104;1112;84762;-69
2021/01/27 05:05:21;;;;;;;19.90;12.20;;;;;;;0.60;80.55;99702.35;103052;1112;79662;-70
2021/01/27 05:08:01;;;;;;;21.10;13.03;;;;;;;0.59;80.55;99711.30;103104;1112;64169;-69
2021/01/27 05:10:32;;;;;;;22.70;12.70;;;;;;;0.63;80.60;99709.20;103059;1112;83104;-69
2021/01/27 05:13:05;;;;;;;21.80;12.70;;;;;;;0.58;80.66;99709.61;103047;1112;70886;-67
2021/01/27 05:15:29;;;;;;;17.23;11.07;;;;;;;0.59;80.48;99709.48;103077;1111;83299;-67
2021/01/27 05:17:54;;;;;;;21.83;13.10;;;;;;;0.58;80.39;99705.14;103037;1113;77303;-70
2021/01/27 05:20:19;;;;;;;15.63;9.27;;;;;;;0.53;80.50;99702.08;103093;1113;64418;-71
2021/01/27 05:22:43;;;;;;;16.07;9.77;;;;;;;0.50;80.63;99704.17;103060;1112;82430;-68
2021/01/27 05:25:12;;;;;;;14.80;9.10;;;;;;;0.53;80.36;99702.08;103042;1112;73040;-68
2021/01/27 05:27:38;;;;;;;16.63;11.30;;;;;;;0.53;80.41;99707.39;103092;1112;83308;-70
2021/01/27 05:30:07;;;;;;;18.13;11.10;;;;;;;0.49;80.30;99697.20;103081;1109;77552;-71
2021/01/27 05:32:48;;;;;;;12.23;7.57;;;;;;;0.48;80.29;99703.48;103104;1112;64089;-68
2021/01/27 05:35:29;;;;;;;15.23;8.80;;;;;;;0.47;80.29;99707.95;103062;1112;83348;-68
2021/01/27 05:37:52;;;;;;;14.47;8.57;;;;;;;0.47;79.98;99710.61;103080;1109;70667;-68
2021/01/27 05:40:27;;;;;;;13.95;8.60;;;;;;;0.47;80.00;99707.95;103061;1112;83233;-68
2021/01/27 05:42:50;;;;;;;18.07;9.20;;;;;;;0.46;80.14;99716.92;103054;1112;77677;-70
2021/01/27 05:45:41;;;;;;;17.43;10.33;;;;;;;0.42;80.14;99710.20;103047;1112;64140;-71
2021/01/27 05:48:32;;;;;;;14.53;8.57;;;;;;;0.36;80.14;99713.41;103065;1113;81429;-69
2021/01/27 05:51:13;;;;;;;17.27;9.80;;;;;;;0.41;79.80;99710.36;103073;1112;71155;-71
2021/01/27 05:53:36;;;;;;;13.83;7.93;;;;;;;0.47;79.71;99709.77;103075;1112;85578;-70
2021/01/27 05:56:09;;;;;;;8.70;6.10;;;;;;;0.47;79.60;99712.42;103041;1112;79460;-70
2021/01/27 05:58:34;;;;;;;11.60;5.97;;;;;;;0.42;79.81;99715.52;103093;1109;64178;-70
2021/01/27 06:01:16;;;;;;;8.10;5.35;;;;;;;0.41;79.54;99716.48;103048;1112;83009;-71
2021/01/27 06:03:40;;;;;;;9.87;5.33;;;;;;;0.38;79.59;99708.83;103082;1112;70313;-69
2021/01/27 06:06:12;;;;;;;9.98;5.43;;;;;;;0.40;79.72;99711.33;103055;1112;84395;-69
2021/01/27 06:08:35;;;;;;;10.73;5.80;;;;;;;0.35;79.16;99717.08;103025;1112;79444;-69
2021/01/27 06:11:12;;;;;;;10.23;6.00;;;;;;;0.39;79.35;99713.14;103083;1112;64271;-70
2021/01/27 06:13:35;;;;;;;10.63;6.70;;;;;;;0.42;79.07;99723.48;103079;1109;80486;-66
2021/01/27 06:15:59;;;;;;;13.20;6.00;;;;;;;0.42;79.22;99725.30;103059;1112;73124;-67
2021/01/27 06:18:29;;;;;;;12.80;6.00;;;;;;;0.43;79.34;99724.33;103068;1112;83617;-67
2021/01/27 06:21:14;;;;;;;8.35;5.00;;;;;;;0.46;79.25;99710.77;103057;1112;79667;-67
2021/01/27 06:24:24;;;;;;;10.73;4.90;;;;;;;0.47;79.27;99721.23;103061;1112;64174;-66
2021/01/27 06:27:30;;;;;;;8.53;4.20;;;;;;;0.48;78.36;99722.92;103093;1112;80813;-67
2021/01/27 06:30:42;;;;;;;9.60;5.13;;;;;;;0.48;78.82;99725.58;103083;1112;71071;-70
2021/01/27 06:33:53;;;;;;;8.27;4.53;;;;;;;0.52;78.80;99734.11;103067;1112;85985;-67
2021/01/27 06:36:50;;;;;;;11.25;5.75;;;;;;;0.54;78.46;99743.63;102912;1112;79478;-67
2021/01/27 06:39:51;;;;;;;13.80;6.40;;;;;;;0.51;78.76;99735.93;103086;1112;64201;-67
2021/01/27 06:42:35;;;;;;;14.27;6.40;;;;;;;0.50;78.42;99742.21;103056;1112;81260;-68
2021/01/27 06:45:15;;;;;;;9.73;5.60;;;;;;;0.52;78.79;99750.06;103044;1112;71060;-67
2021/01/27 06:48:19;;;;;;;13.93;5.83;;;;;;;0.52;78.52;99748.21;103054;1112;83216;-68
2021/01/27 06:51:23;;;;;;;9.10;4.10;;;;;;;0.51;78.62;99743.05;103046;1112;79510;-67
2021/01/27 06:54:23;;;;;;;7.67;3.17;;;;;;;0.53;78.27;99749.06;103006;1112;64284;-67
2021/01/27 06:57:15;;;;;;;10.90;3.43;;;;;;;0.56;78.60;99749.63;103076;1112;80555;-75
2021/01/27 07:00:07;;;;;;;5.03;2.67;;;;;;;0.59;78.44;99748.50;103076;1112;70358;-75
2021/01/27 07:03:24;;;;;;;8.30;3.30;;;;;;;0.65;78.19;99747.09;103113;1113;85773;-64
2021/01/27 07:06:16;;;;;;;7.30;2.93;;;;;;;0.62;78.39;99748.22;103012;1112;78641;-69
2021/01/27 07:08:38;;;;;;;7.97;3.00;;;;;;;0.64;78.44;99756.03;103065;1112;64355;-69
2021/01/27 07:11:07;;;;;;;6.83;3.03;;;;;;;0.66;78.24;99759.41;103065;1112;81109;-67
2021/01/27 07:13:39;;;;;;;7.10;3.20;;;;;;;0.64;77.86;99750.72;103108;1111;71514;-68
2021/01/27 07:15:58;;;;;;;6.27;3.40;;;;;;;0.61;78.15;99754.50;103067;1112;84452;-74
2021/01/27 07:18:35;;;;;;;9.63;3.73;;;;;;;0.65;78.29;99761.22;103085;1112;77897;-68
2021/01/27 07:20:48;;;;;;;6.23;3.30;;;;;;;0.68;77.98;99763.60;102966;1112;64153;-68
2021/01/27 07:23:02;;;;;;;6.80;3.40;;;;;;;0.66;78.13;99768.20;103022;1112;82378;-67
2021/01/27 07:25:15;;;;;;;8.77;3.73;;;;;;;0.70;77.96;99766.95;103000;1112;72011;-67
2021/01/27 07:27:22;;;;;;;7.07;4.23;;;;;;;0.73;77.90;99779.95;103087;1112;85006;-68
2021/01/27 07:29:34;;;;;;;7.80;3.83;;;;;;;0.74;77.79;99778.98;103075;1112;77375;-72
2021/01/27 07:31:46;;;;;;;6.15;2.85;;;;;;;0.70;78.07;99766.95;103077;1112;64204;-72
2021/01/27 07:33:58;;;;;;;5.67;2.50;;;;;;;0.76;77.95;99773.52;103080;1109;82429;-67
2021/01/27 07:36:18;;;;;;;5.50;3.00;;;;;;;0.78;77.93;99777.70;103091;1112;71552;-70
2021/01/27 07:38:29;;;;;;;9.17;3.43;;;;;;;0.76;77.65;99776.17;103111;1112;85030;-74
2021/01/27 07:40:40;;;;;;;7.03;3.40;;;;;;;0.78;77.64;99772.39;103093;1109;78213;-73
2021/01/27 07:42:56;;;;;;;6.90;3.40;;;;;;;0.82;77.65;99770.30;103096;1112;64342;-67
2021/01/27 07:45:06;;;;;;;5.77;2.80;;;;;;;0.83;77.55;99777.27;103086;1112;82141;-68
2021/01/27 07:47:28;;;;;;;7.13;3.80;;;;;;;0.87;77.69;99773.36;103077;1112;71195;-67
2021/01/27 07:49:48;;;;;;;8.77;4.97;;;;;;;0.81;77.47;99772.11;103040;1112;84376;-73
2021/01/27 07:51:59;;;;;;;10.57;5.20;;;;;;;0.81;77.53;99768.61;103065;1112;77974;-74
2021/01/27 07:54:10;;;;;;;7.27;3.93;;;;;;;0.84;77.52;99770.98;103081;1112;64255;-68
2021/01/27 07:56:19;;;;;;;5.87;3.00;;;;;;;0.82;77.87;99786.24;103073;1112;80794;-67
2021/01/27 07:58:34;;;;;;;7.35;4.40;;;;;;;0.84;77.94;99777.14;103119;1112;71253;-72
2021/01/27 08:00:49;;;;;;;6.90;3.97;;;;;;;0.82;77.89;99784.43;103095;1112;84838;-72
2021/01/27 08:03:23;;;;;;;8.27;4.37;;;;;;;0.87;77.78;99789.30;103097;1112;79337;-69
2021/01/27 08:05:35;;;;;;;7.20;3.63;;;;;;;0.83;77.93;99788.75;103125;1109;64178;-68
2021/01/27 08:07:43;;;;;;;8.90;4.40;;;;;;;0.84;78.20;99784.27;103064;1112;81902;-73
2021/01/27 08:09:53;;;;;;;7.70;4.70;;;;;;;0.84;77.95;99797.56;103117;1112;71119;-72
2021/01/27 08:12:16;;;;;;;11.73;7.30;;;;;;;0.85;78.15;99786.77;103066;1112;85441;-73
2021/01/27 08:15:07;;;;;;;23.47;13.83;;;;;;;0.83;78.11;99798.53;103091;1112;78953;-68
2021/01/27 08:17:54;;;;;;;19.93;10.83;;;;;;;0.81;78.20;99801.34;103113;1112;64270;-68
2021/01/27 08:20:20;;;;;;;19.60;10.20;;;;;;;0.85;78.41;99801.91;103055;1113;81552;-67
2021/01/27 08:22:50;;;;;;;29.27;14.77;;;;;;;0.82;78.61;99803.04;103087;1112;72606;-68
2021/01/27 08:24:57;;;;;;;13.30;6.75;;;;;;;0.80;78.49;99797.00;103118;1109;84497;-68
2021/01/27 08:27:26;;;;;;;14.33;8.00;;;;;;;0.81;78.56;99801.34;103081;1112;78431;-67
2021/01/27 08:29:33;;;;;;;12.80;7.60;;;;;;;0.75;78.54;99809.04;103136;1109;64338;-72
2021/01/27 08:31:40;;;;;;;18.13;10.50;;;;;;;0.77;78.61;99807.10;103084;1112;81487;-71
2021/01/27 08:33:57;;;;;;;24.90;13.30;;;;;;;0.79;78.64;99808.63;103077;1113;72351;-67
2021/01/27 08:36:08;;;;;;;18.50;12.20;;;;;;;0.82;78.68;99812.83;103104;1112;84882;-68
2021/01/27 08:38:26;;;;;;;24.80;12.83;;;;;;;0.79;78.77;99813.11;103110;1112;78602;-71
2021/01/27 08:40:34;;;;;;;19.27;11.83;;;;;;;0.78;79.05;99822.05;103073;1112;64342;-68
2021/01/27 08:42:44;;;;;;;13.10;7.63;;;;;;;0.75;78.83;99817.02;103043;1112;81556;-69
2021/01/27 08:44:48;;;;;;;16.30;10.35;;;;;;;0.76;78.89;99822.20;103074;1112;72104;-70
2021/01/27 08:46:56;;;;;;;14.40;7.87;;;;;;;0.79;78.95;99823.73;103036;1112;84321;-71
2021/01/27 08:49:01;;;;;;;14.73;8.83;;;;;;;0.77;79.00;99820.39;103088;1113;77525;-68
2021/01/27 08:51:07;;;;;;;14.77;9.60;;;;;;;0.76;79.06;99813.39;103086;1113;64312;-68
2021/01/27 08:53:14;;;;;;;10.80;7.15;;;;;;;0.79;78.90;99819.27;103004;1112;82136;-67
2021/01/27 08:55:39;;;;;;;10.53;6.20;;;;;;;0.80;78.92;99826.24;103107;1112;72500;-67
2021/01/27 08:58:24;;;;;;;11.00;6.90;;;;;;;0.84;78.75;99817.02;103079;1112;84676;-68
2021/01/27 09:00:44;;;;;;;7.80;4.70;;;;;;;0.90;78.86;99823.59;103067;1112;78269;-71
2021/01/27 09:02:54;;;;;;;12.20;7.33;;;;;;;0.95;78.82;99818.68;103063;1112;64174;-70
2021/01/27 09:04:59;;;;;;;12.67;6.23;;;;;;;0.98;78.41;99823.72;103042;1112;82227;-70
2021/01/27 09:07:09;;;;;;;9.77;6.23;;;;;;;0.98;78.84;99832.53;103058;1113;72099;-70
2021/01/27 09:09:28;;;;;;;10.13;6.17;;;;;;;0.95;78.70;99824.00;102964;1112;85006;-69
2021/01/27 09:11:34;;;;;;;13.93;6.67;;;;;;;1.00;78.57;99827.06;103092;1112;78863;-69
2021/01/27 09:13:44;;;;;;;12.90;7.10;;;;;;;0.99;78.39;99834.20;103096;1112;64175;-69
2021/01/27 09:15:57;;;;;;;12.13;7.17;;;;;;;0.97;78.17;99830.84;103052;1112;82180;-68
2021/01/27 09:18:03;;;;;;;17.97;9.30;;;;;;;0.93;78.30;99828.63;103074;1109;71098;-67
2021/01/27 09:20:13;;;;;;;17.60;9.20;;;;;;;0.98;78.31;99837.02;103113;1113;84147;-69
2021/01/27 09:22:24;;;;;;;11.03;6.17;;;;;;;1.02;78.14;99833.07;103072;1111;78127;-69
2021/01/27 09:24:34;;;;;;;11.70;6.30;;;;;;;1.02;78.07;99835.73;103081;1112;64172;-67
2021/01/27 09:26:44;;;;;;;11.13;5.67;;;;;;;1.04;78.09;99836.45;103131;1112;81820;-68
2021/01/27 09:28:50;;;;;;;14.20;7.90;;;;;;;1.06;77.90;99848.62;103094;1113;71120;-70
2021/01/27 09:30:56;;;;;;;13.87;6.97;;;;;;;1.05;77.89;99844.27;103076;1113;84788;-70
2021/01/27 09:33:13;;;;;;;15.57;8.43;;;;;;;1.04;77.93;99852.41;103106;1112;79568;-71
2021/01/27 09:35:24;;;;;;;16.30;9.30;;;;;;;1.13;77.70;99838.23;103079;1112;64178;-70
2021/01/27 09:37:34;;;;;;;11.43;5.67;;;;;;;1.15;78.01;99846.93;103063;1112;81653;-69
2021/01/27 09:39:49;;;;;;;8.53;4.50;;;;;;;1.14;77.77;99842.58;103075;1112;70532;-68
2021/01/27 09:41:54;;;;;;;8.53;4.83;;;;;;;1.05;77.56;99841.61;103079;1109;83534;-68
2021/01/27 09:44:01;;;;;;;8.93;5.27;;;;;;;1.09;77.61;99847.49;103085;1112;79265;-69
2021/01/27 09:46:26;;;;;;;9.03;4.97;;;;;;;1.10;77.53;99849.15;103068;1112;64179;-69
2021/01/27 09:48:32;;;;;;;10.70;5.47;;;;;;;1.08;77.34;99845.80;103100;1112;82178;-70
2021/01/27 09:50:53;;;;;;;8.80;4.80;;;;;;;1.14;77.58;99850.56;103085;1112;72167;-70
2021/01/27 09:53:02;;;;;;;9.87;4.43;;;;;;;1.18;77.40;99852.78;103120;1109;83793;-68
2021/01/27 09:55:13;;;;;;;11.10;5.13;;;;;;;1.19;77.31;99842.98;103097;1113;77996;-68
2021/01/27 09:57:22;;;;;;;10.23;5.00;;;;;;;1.18;77.49;99844.80;103167;1109;64332;-69
2021/01/27 09:59:28;;;;;;;9.90;5.07;;;;;;;1.26;77.29;99844.10;103068;1112;82456;-71
2021/01/27 10:01:34;;;;;;;12.10;5.63;;;;;;;1.31;77.20;99849.83;103102;1113;71791;-65
2021/01/27 10:03:43;;;;;;;9.87;5.37;;;;;;;1.38;77.23;99842.09;103083;1112;84155;-66
2021/01/27 10:05:48;;;;;;;8.57;4.67;;;;;;;1.37;77.26;99840.43;103096;1112;78729;-70
2021/01/27 10:07:53;;;;;;;11.40;5.63;;;;;;;1.40;77.26;99845.47;103073;1112;64297;-69
2021/01/27 10:10:05;;;;;;;13.70;6.80;;;;;;;1.39;77.09;99849.09;103085;1112;82764;-68
2021/01/27 10:12:26;;;;;;;12.15;5.85;;;;;;;1.33;76.99;99853.17;103069;1113;71458;-70
2021/01/27 10:14:34;;;;;;;11.60;6.03;;;;;;;1.32;77.07;99842.69;103101;1112;83819;-65
2021/01/27 10:16:53;;;;;;;14.03;7.67;;;;;;;1.31;76.98;99844.51;103058;1112;78774;-66
2021/01/27 10:19:06;;;;;;;14.53;7.63;;;;;;;1.36;77.06;99849.38;103081;1112;64130;-71
2021/01/27 10:21:17;;;;;;;13.00;7.13;;;;;;;1.42;77.22;99847.00;103089;1111;81877;-72
2021/01/27 10:23:39;;;;;;;19.73;9.30;;;;;;;1.47;77.03;99847.40;103088;1112;72049;-73
2021/01/27 10:25:48;;;;;;;12.90;6.53;;;;;;;1.55;76.98;99849.33;103123;1109;84982;-70
2021/01/27 10:28:18;;;;;;;13.57;6.60;;;;;;;1.58;77.04;99844.56;103094;1112;77947;-69
2021/01/27 10:30:55;;;;;;;13.07;6.43;;;;;;;1.55;77.01;99847.50;103116;1112;64175;-69
2021/01/27 10:33:00;;;;;;;16.40;8.25;;;;;;;1.58;76.81;99841.05;103049;1113;82771;-69
2021/01/27 10:35:28;;;;;;;11.83;6.47;;;;;;;1.59;76.80;99843.55;103066;1113;71122;-68
2021/01/27 10:37:43;;;;;;;14.97;7.97;;;;;;;1.56;76.80;99851.02;103155;1112;84887;-69
2021/01/27 10:40:22;;;;;;;16.20;9.27;;;;;;;1.67;77.02;99848.17;103054;1112;77219;-68
2021/01/27 10:42:26;;;;;;;19.90;10.40;;;;;;;1.68;77.07;99842.69;103117;1113;64194;-69
2021/01/27 10:44:35;;;;;;;16.40;8.13;;;;;;;1.66;76.82;99846.48;103089;1109;82678;-69
2021/01/27 10:46:41;;;;;;;20.27;10.40;;;;;;;1.68;76.88;99844.50;103067;1112;70651;-69
2021/01/27 10:48:46;;;;;;;17.47;10.43;;;;;;;1.79;77.01;99850.48;103129;1112;84679;-70
2021/01/27 10:50:56;;;;;;;16.30;8.33;;;;;;;1.83;76.66;99844.87;103047;1113;78354;-69
2021/01/27 10:53:04;;;;;;;13.97;6.77;;;;;;;1.83;76.85;99852.86;103110;1112;64174;-70
2021/01/27 10:55:15;;;;;;;13.60;6.83;;;;;;;1.84;76.68;99849.22;103043;1112;82602;-70
2021/01/27 10:57:20;;;;;;;16.03;7.63;;;;;;;1.84;76.63;99849.22;103125;1112;70977;-68
2021/01/27 10:59:28;;;;;;;10.83;6.30;;;;;;;1.83;76.63;99843.05;103112;1113;84084;-69
2021/01/27 11:01:33;;;;;;;10.67;6.13;;;;;;;1.83;76.68;99847.53;103038;1113;78379;-69
2021/01/27 11:03:41;;;;;;;10.00;5.80;;;;;;;1.78;76.52;99845.32;103080;1113;64300;-70
2021/01/27 11:05:46;;;;;;;10.73;5.67;;;;;;;1.70;76.48;99845.22;103077;1112;82008;-67
2021/01/27 11:07:51;;;;;;;10.67;6.03;;;;;;;1.66;76.36;99852.65;103076;1112;71749;-68
2021/01/27 11:09:57;;;;;;;9.00;4.80;;;;;;;1.64;76.11;99856.45;103059;1112;84054;-69
2021/01/27 11:12:02;;;;;;;9.90;5.77;;;;;;;1.64;76.40;99849.30;103092;1113;77375;-71
2021/01/27 11:14:07;;;;;;;9.03;5.37;;;;;;;1.71;76.31;99850.38;103054;1112;64207;-69
2021/01/27 11:16:12;;;;;;;10.80;5.77;;;;;;;1.73;76.21;99835.09;103070;1113;82363;-67
2021/01/27 11:18:18;;;;;;;14.33;8.93;;;;;;;1.82;76.29;99837.86;103064;1113;71061;-69
2021/01/27 11:20:26;;;;;;;14.80;9.03;;;;;;;1.89;76.43;99839.80;103092;1112;84270;-69
2021/01/27 11:22:31;;;;;;;15.00;8.33;;;;;;;1.93;76.44;99843.83;103071;1113;78239;-69
2021/01/27 11:24:36;;;;;;;16.00;8.35;;;;;;;1.98;76.32;99848.73;103059;1112;64274;-68
2021/01/27 11:26:40;;;;;;;23.10;11.20;;;;;;;1.89;76.19;99842.47;103050;1112;82400;-68
2021/01/27 11:28:49;;;;;;;16.37;8.80;;;;;;;1.88;76.22;99855.91;103084;1112;71009;-69
2021/01/27 11:30:57;;;;;;;14.00;7.80;;;;;;;1.89;76.15;99855.78;103102;1112;85132;-70
2021/01/27 11:33:03;;;;;;;15.60;8.70;;;;;;;1.91;76.31;99860.95;103090;1112;78947;-69
2021/01/27 11:35:12;;;;;;;20.90;11.63;;;;;;;1.93;76.36;99865.14;103167;1112;64424;-68
2021/01/27 11:37:17;;;;;;;19.23;10.37;;;;;;;1.93;76.35;99864.30;103091;1112;81088;-70
2021/01/27 11:39:21;;;;;;;17.13;9.90;;;;;;;1.91;76.51;99866.27;103141;1112;71910;-70
2021/01/27 11:41:28;;;;;;;26.60;15.80;;;;;;;1.91;76.39;99861.80;103073;1112;85190;-71
2021/01/27 11:43:33;;;;;;;35.40;19.83;;;;;;;1.89;76.17;99865.59;103030;1112;79938;-70
2021/01/27 11:45:38;;;;;;;31.90;17.50;;;;;;;1.86;75.95;99864.06;103082;1112;64191;-70
2021/01/27 11:47:42;;;;;;;22.90;15.07;;;;;;;1.80;76.05;99853.99;103130;1113;81664;-69
2021/01/27 11:49:49;;;;;;;21.70;13.17;;;;;;;1.76;75.84;99864.09;103099;1112;71846;-67
2021/01/27 11:51:56;;;;;;;19.73;12.10;;;;;;;1.74;76.18;99860.74;103085;1112;86067;-65
2021/01/27 11:54:01;;;;;;;21.60;12.37;;;;;;;1.69;76.19;99862.16;103085;1112;78586;-70
2021/01/27 11:56:07;;;;;;;17.50;11.00;;;;;;;1.69;76.09;99863.02;103063;1112;64232;-69
2021/01/27 11:58:11;;;;;;;15.23;10.00;;;;;;;1.68;76.17;99865.80;103099;1112;81171;-70
2021/01/27 12:00:21;;;;;;;13.90;8.83;;;;;;;1.67;76.12;99866.80;103062;1112;70859;-69
2021/01/27 12:02:26;;;;;;;12.37;6.80;;;;;;;1.69;76.21;99871.00;103118;1113;85343;-62
2021/01/27 12:04:32;;;;;;;14.80;7.20;;;;;;;1.64;76.11;99869.75;103082;1111;78896;-63
2021/01/27 12:06:37;;;;;;;13.97;6.20;;;;;;;1.65;76.15;99871.41;103114;1111;64147;-63
2021/01/27 12:08:42;;;;;;;10.77;5.80;;;;;;;1.61;75.89;99862.91;103068;1111;82007;-63
2021/01/27 12:10:48;;;;;;;11.90;6.00;;;;;;;1.59;76.12;99862.19;103113;1112;72170;-63
2021/01/27 12:12:53;;;;;;;12.97;6.07;;;;;;;1.58;76.07;99863.19;103082;1109;83209;-62
2021/01/27 12:14:59;;;;;;;10.80;6.43;;;;;;;1.56;76.15;99854.52;103091;1112;79217;-68
2021/01/27 12:17:04;;;;;;;8.83;5.13;;;;;;;1.57;75.86;99871.30;103107;1112;64184;-65
2021/01/27 12:19:09;;;;;;;16.97;7.50;;;;;;;1.57;75.64;99861.50;103066;1112;82493;-69
2021/01/27 12:21:14;;;;;;;16.13;7.57;;;;;;;1.57;75.82;99872.14;103050;1112;71460;-69
2021/01/27 12:23:19;;;;;;;10.97;5.83;;;;;;;1.53;75.68;99870.78;103067;1112;85022;-69
2021/01/27 12:25:24;;;;;;;10.23;5.77;;;;;;;1.56;75.68;99872.31;103099;1112;78675;-69
2021/01/27 12:27:28;;;;;;;8.43;5.57;;;;;;;1.55;75.56;99865.30;103098;1111;64457;-65
2021/01/27 12:29:34;;;;;;;6.97;4.00;;;;;;;1.54;75.24;99872.44;103088;1111;81308;-67
2021/01/27 12:31:39;;;;;;;6.00;3.60;;;;;;;1.57;75.55;99861.50;103123;1112;71681;-73
2021/01/27 12:33:44;;;;;;;7.23;3.30;;;;;;;1.57;75.48;99872.14;103155;1110;85253;-69
2021/01/27 12:35:50;;;;;;;15.93;5.90;;;;;;;1.62;75.47;99872.55;103069;1112;77288;-70
2021/01/27 12:37:54;;;;;;;9.80;4.30;;;;;;;1.63;75.44;99874.23;103088;1111;64002;-69
2021/01/27 12:39:59;;;;;;;11.35;4.10;;;;;;;1.65;74.77;99866.94;103059;1110;82426;-70
2021/01/27 12:42:04;;;;;;;8.00;3.57;;;;;;;1.67;74.95;99870.31;103085;1113;70607;-68
2021/01/27 12:44:09;;;;;;;7.40;4.07;;;;;;;1.73;74.99;99877.69;103097;1113;84351;-63
2021/01/27 12:46:23;;;;;;;6.00;3.57;;;;;;;1.75;75.05;99883.73;103085;1110;78002;-61